createdAt,value
2022-08-05T00:00:16.219Z,66.34
2022-08-05T00:02:44.118Z,66.37
2022-08-05T00:06:02.039Z,66.46
2022-08-05T00:08:32.794Z,66.59
2022-08-05T00:10:56.951Z,67.15
2022-08-05T00:13:38.174Z,67.58
2022-08-05T00:16:08.606Z,67.95
2022-08-05T00:18:36.468Z,68.25
2022-08-05T00:21:06.873Z,68.05
2022-08-05T00:23:45.798Z,67.92
2022-08-05T00:26:15.089Z,67.82
2022-08-05T00:28:45.723Z,67.91
2022-08-05T00:31:13.057Z,67.60
2022-08-05T00:34:54.617Z,67.90
2022-08-05T00:37:12.908Z,67.93
2022-08-05T00:39:14.338Z,67.67
2022-08-05T00:41:52.206Z,67.44
2022-08-05T00:44:31.018Z,67.38
2022-08-05T00:47:02.005Z,67.62
2022-08-05T00:49:49.351Z,67.75
2022-08-05T00:52:18.133Z,67.93
2022-08-05T00:54:55.981Z,68.20
2022-08-05T00:57:25.370Z,68.42
2022-08-05T00:59:58.444Z,67.82
2022-08-05T01:02:25.294Z,68.48
2022-08-05T01:04:52.515Z,67.57
2022-08-05T01:07:19.256Z,66.96
2022-08-05T01:09:46.073Z,67.11
2022-08-05T01:12:24.974Z,67.31
2022-08-05T01:15:05.140Z,66.99
2022-08-05T01:17:53.782Z,67.34
2022-08-05T01:20:40.679Z,68.54
2022-08-05T01:23:23.194Z,68.56
2022-08-05T01:26:11.347Z,67.23
2022-08-05T01:28:51.372Z,66.85
2022-08-05T01:31:44.781Z,68.14
2022-08-05T01:34:17.774Z,68.74
2022-08-05T01:36:54.859Z,68.28
2022-08-05T01:39:45.664Z,68.04
2022-08-05T01:42:13.841Z,68.52
2022-08-05T01:44:44.321Z,69.07
2022-08-05T01:47:22.413Z,68.94
2022-08-05T01:50:01.359Z,68.37
2022-08-05T01:52:29.749Z,69.00
2022-08-05T01:55:00.482Z,68.76
2022-08-05T01:58:09.487Z,69.12
2022-08-05T02:00:18.846Z,69.32
2022-08-05T02:02:54.479Z,69.32
2022-08-05T02:05:25.216Z,69.57
2022-08-05T02:08:01.377Z,69.81
2022-08-05T02:10:33.768Z,69.94
2022-08-05T02:13:16.218Z,69.71
2022-08-05T02:16:05.639Z,69.74
2022-08-05T02:18:48.054Z,70.34
2022-08-05T02:21:43.310Z,70.68
2022-08-05T02:24:23.189Z,70.70
2022-08-05T02:26:56.358Z,70.42
2022-08-05T02:29:58.757Z,70.23
2022-08-05T02:32:23.828Z,70.58
2022-08-05T02:35:09.565Z,71.09
2022-08-05T02:37:46.515Z,71.44
2022-08-05T02:40:21.512Z,72.15
2022-08-05T02:42:53.085Z,72.43
2022-08-05T02:45:23.934Z,72.40
2022-08-05T02:48:06.970Z,72.54
2022-08-05T02:50:43.951Z,72.99
2022-08-05T02:53:18.762Z,73.22
2022-08-05T02:55:54.265Z,73.24
2022-08-05T02:58:26.751Z,73.39
2022-08-05T03:00:56.660Z,73.64
2022-08-05T03:03:23.959Z,73.26
2022-08-05T03:06:55.754Z,73.36
2022-08-05T03:08:42.682Z,73.65
2022-08-05T03:11:57.120Z,74.31
2022-08-05T03:14:13.717Z,74.71
2022-08-05T03:16:40.753Z,74.69
2022-08-05T03:19:16.980Z,75.08
2022-08-05T03:21:54.331Z,75.86
2022-08-05T03:24:26.931Z,75.60
2022-08-05T03:26:59.506Z,75.90
2022-08-05T03:29:44.435Z,76.13
2022-08-05T03:32:15.424Z,75.75
2022-08-05T03:34:50.763Z,76.18
2022-08-05T03:37:19.565Z,77.08
2022-08-05T03:39:59.379Z,77.10
2022-08-05T03:42:29.052Z,77.66
2022-08-05T03:44:58.832Z,78.38
2022-08-05T03:47:25.908Z,78.28
2022-08-05T03:49:57.764Z,77.81
2022-08-05T03:52:37.634Z,77.86
2022-08-05T03:56:04.837Z,78.19
2022-08-05T03:58:19.105Z,78.84
2022-08-05T04:00:51.586Z,78.26
2022-08-05T04:03:28.266Z,78.63
2022-08-05T04:05:58.053Z,77.97
2022-08-05T04:08:34.997Z,78.84
2022-08-05T04:11:07.538Z,78.10
2022-08-05T04:13:51.376Z,78.90
2022-08-05T04:16:24.217Z,78.67
2022-08-05T04:18:54.304Z,78.20
2022-08-05T04:22:10.284Z,77.54
2022-08-05T04:24:09.113Z,77.78
2022-08-05T04:26:45.805Z,77.68
2022-08-05T04:29:13.442Z,76.90
2022-08-05T04:31:41.352Z,76.72
2022-08-05T04:34:19.274Z,76.91
2022-08-05T04:36:56.958Z,76.67
2022-08-05T04:39:24.329Z,76.77
2022-08-05T04:41:56.944Z,77.20
2022-08-05T04:44:30.091Z,76.71
2022-08-05T04:47:09.648Z,76.83
2022-08-05T04:50:01.331Z,76.75
2022-08-05T04:52:24.500Z,77.11
2022-08-05T04:54:54.763Z,77.74
2022-08-05T04:57:28.781Z,78.17
2022-08-05T04:59:57.033Z,78.87
2022-08-05T05:02:41.499Z,78.52
2022-08-05T05:05:26.221Z,78.03
2022-08-05T05:08:06.122Z,77.69
2022-08-05T05:10:47.295Z,77.88
2022-08-05T05:13:23.243Z,77.37
2022-08-05T05:15:57.927Z,77.20
2022-08-05T05:18:33.791Z,76.70
2022-08-05T05:21:03.337Z,76.27
2022-08-05T05:23:39.127Z,74.90
2022-08-05T05:26:17.749Z,74.84
2022-08-05T05:28:45.060Z,74.58
2022-08-05T05:31:19.654Z,72.30
2022-08-05T05:34:01.682Z,71.13
2022-08-05T05:36:37.527Z,71.01
2022-08-05T05:39:05.802Z,71.46
2022-08-05T05:41:54.267Z,72.05
2022-08-05T05:44:36.297Z,71.32
2022-08-05T05:47:13.232Z,71.25
2022-08-05T05:49:56.736Z,70.99
2022-08-05T05:52:31.418Z,70.87
2022-08-05T05:55:07.316Z,70.79
2022-08-05T05:57:52.310Z,70.24
2022-08-05T06:00:21.899Z,69.59
2022-08-05T06:02:58.629Z,69.75
2022-08-05T06:05:25.701Z,70.08
2022-08-05T06:08:01.413Z,69.63
2022-08-05T06:10:36.595Z,68.19
2022-08-05T06:13:05.075Z,66.48
2022-08-05T06:16:30.016Z,66.93
2022-08-05T06:18:19.628Z,67.01
2022-08-05T06:20:58.344Z,66.17
2022-08-05T06:23:43.674Z,66.24
2022-08-05T06:26:13.723Z,66.07
2022-08-05T06:28:48.617Z,66.39
2022-08-05T06:31:17.980Z,65.68
2022-08-05T06:34:07.297Z,64.81
2022-08-05T06:36:57.050Z,64.59
2022-08-05T06:39:22.288Z,64.09
2022-08-05T06:41:53.736Z,63.18
2022-08-05T06:44:22.059Z,63.58
2022-08-05T06:46:50.719Z,63.18
2022-08-05T06:49:18.788Z,62.14
2022-08-05T06:51:48.036Z,62.37
2022-08-05T06:54:25.950Z,62.21
2022-08-05T06:56:55.143Z,61.76
2022-08-05T06:59:42.347Z,60.87
2022-08-05T07:02:22.837Z,61.50
2022-08-05T07:04:50.437Z,62.10
2022-08-05T07:07:35.617Z,62.70
2022-08-05T07:10:06.549Z,62.17
2022-08-05T07:12:52.688Z,62.15
2022-08-05T07:16:01.789Z,62.18
2022-08-05T07:18:30.145Z,60.99
2022-08-05T07:20:58.590Z,60.41
2022-08-05T07:23:33.439Z,60.42
2022-08-05T07:26:05.470Z,60.92
2022-08-05T07:28:35.673Z,59.31
2022-08-05T07:31:03.939Z,59.07
2022-08-05T07:33:36.420Z,60.47
2022-08-05T07:36:19.876Z,60.40
2022-08-05T07:38:47.561Z,60.85
2022-08-05T07:42:13.531Z,61.06
2022-08-05T07:44:12.133Z,60.74
2022-08-05T07:46:45.963Z,59.90
2022-08-05T07:49:16.239Z,59.01
2022-08-05T07:51:53.290Z,58.82
2022-08-05T07:54:30.843Z,59.99
2022-08-05T07:57:01.641Z,59.71
2022-08-05T07:59:41.887Z,60.46
2022-08-05T08:02:16.827Z,60.41
2022-08-05T08:04:47.318Z,60.58
2022-08-05T08:07:14.967Z,59.70
2022-08-05T08:09:42.490Z,60.54
2022-08-05T08:12:27.400Z,59.66
2022-08-05T08:14:56.580Z,60.32
2022-08-05T08:17:23.901Z,61.63
2022-08-05T08:20:44.494Z,58.92
2022-08-05T08:22:41.591Z,59.49
2022-08-05T08:25:15.739Z,59.72
2022-08-05T08:27:47.633Z,59.96
2022-08-05T08:30:29.475Z,61.17
2022-08-05T08:33:04.534Z,61.01
2022-08-05T08:35:41.607Z,59.86
2022-08-05T08:38:32.298Z,57.87
2022-08-05T08:41:10.178Z,58.29
2022-08-05T08:45:22.307Z,58.34
2022-08-05T08:46:31.282Z,58.31
2022-08-05T08:49:17.482Z,58.76
2022-08-05T08:52:04.127Z,59.86
2022-08-05T08:54:42.261Z,58.73
2022-08-05T08:57:11.262Z,57.50
2022-08-05T08:59:38.949Z,58.36
2022-08-05T09:02:09.065Z,56.16
2022-08-05T09:04:58.421Z,54.00
2022-08-05T09:07:28.775Z,54.79
2022-08-05T09:09:56.111Z,52.97
2022-08-05T09:12:27.417Z,53.88
2022-08-05T09:14:59.626Z,54.85
2022-08-05T09:17:41.393Z,55.26
2022-08-05T09:20:13.325Z,57.64
2022-08-05T09:23:07.966Z,56.03
2022-08-05T09:26:01.720Z,54.71
2022-08-05T09:28:32.317Z,57.68
2022-08-05T09:31:44.071Z,57.58
2022-08-05T09:34:16.747Z,57.54
2022-08-05T09:36:55.681Z,57.91
2022-08-05T09:39:41.346Z,55.52
2022-08-05T09:42:22.978Z,55.19
2022-08-05T09:44:56.352Z,55.17
2022-08-05T09:47:26.123Z,57.33
2022-08-05T09:50:02.459Z,56.12
2022-08-05T09:52:32.918Z,55.80
2022-08-05T09:55:58.411Z,56.79
2022-08-05T09:57:59.868Z,55.26
2022-08-05T10:00:30.411Z,54.80
2022-08-05T10:02:58.379Z,53.10
2022-08-05T10:05:28.942Z,49.38
2022-08-05T10:08:36.791Z,51.11
2022-08-05T10:10:54.378Z,49.35
2022-08-05T10:13:45.606Z,49.53
2022-08-05T10:16:30.671Z,46.77
2022-08-05T10:19:00.031Z,45.93
2022-08-05T10:21:27.682Z,46.36
2022-08-05T10:24:09.039Z,50.62
2022-08-05T10:26:51.686Z,46.35
2022-08-05T10:30:05.693Z,45.68
2022-08-05T10:32:52.275Z,47.23
2022-08-05T10:35:00.543Z,45.86
2022-08-05T10:37:40.233Z,48.20
2022-08-05T10:40:27.799Z,51.43
2022-08-05T10:43:01.322Z,49.93
2022-08-05T10:45:39.985Z,50.59
2022-08-05T10:48:52.400Z,50.35
2022-08-05T10:51:23.167Z,46.01
2022-08-05T10:54:02.089Z,41.21
2022-08-05T10:56:52.868Z,39.90
2022-08-05T11:00:03.372Z,43.94
2022-08-05T11:02:38.345Z,45.20
2022-08-05T11:05:05.321Z,40.77
2022-08-05T11:07:33.267Z,42.15
2022-08-05T11:10:27.732Z,39.95
2022-08-05T11:12:57.597Z,42.73
2022-08-05T11:16:00.663Z,41.21
2022-08-05T11:18:32.352Z,42.04
2022-08-05T11:21:02.292Z,37.97
2022-08-05T11:24:04.719Z,35.39
2022-08-05T11:26:43.440Z,36.68
2022-08-05T11:29:40.852Z,36.50
2022-08-05T11:32:28.426Z,34.88
2022-08-05T11:34:57.420Z,35.28
2022-08-05T11:38:28.526Z,32.49
2022-08-05T11:41:13.844Z,31.77
2022-08-05T11:44:05.962Z,31.77
2022-08-05T11:46:58.584Z,31.68
2022-08-05T11:49:26.035Z,34.63
2022-08-05T11:51:57.301Z,35.02
2022-08-05T11:54:32.756Z,34.39
2022-08-05T11:57:08.644Z,35.51
2022-08-05T11:59:50.786Z,32.32
2022-08-05T12:02:30.081Z,32.81
2022-08-05T12:04:59.188Z,32.17
2022-08-05T12:08:03.702Z,34.26
2022-08-05T12:10:19.967Z,34.51
2022-08-05T12:12:58.506Z,36.08
2022-08-05T12:15:33.965Z,34.40
2022-08-05T12:18:10.559Z,33.00
2022-08-05T12:20:39.095Z,31.16
2022-08-05T12:23:12.396Z,32.91
2022-08-05T12:25:53.612Z,34.98
2022-08-05T12:28:37.671Z,36.03
2022-08-05T12:31:05.452Z,34.72
2022-08-05T12:33:36.651Z,33.59
2022-08-05T12:36:09.560Z,35.11
2022-08-05T12:38:39.702Z,33.64
2022-08-05T12:41:13.388Z,32.28
2022-08-05T12:43:53.898Z,31.49
2022-08-05T12:46:29.462Z,31.56
2022-08-05T12:49:01.297Z,31.78
2022-08-05T12:52:12.831Z,33.77
2022-08-05T12:54:36.665Z,34.69
2022-08-05T12:57:09.227Z,34.62
2022-08-05T13:02:02.757Z,33.40
2022-08-05T13:02:36.475Z,32.00
2022-08-05T13:05:06.328Z,30.59
2022-08-05T13:07:59.720Z,31.16
2022-08-05T13:10:20.478Z,33.21
2022-08-05T13:12:51.333Z,34.92
2022-08-05T13:15:41.510Z,32.80
2022-08-05T13:18:20.142Z,30.65
2022-08-05T13:20:49.848Z,31.25
2022-08-05T13:23:22.033Z,33.51
2022-08-05T13:25:52.267Z,32.62
2022-08-05T13:28:27.515Z,29.82
2022-08-05T13:30:54.413Z,32.54
2022-08-05T13:34:21.507Z,30.72
2022-08-05T13:36:09.345Z,29.60
2022-08-05T13:38:38.287Z,29.73
2022-08-05T13:41:10.911Z,30.11
2022-08-05T13:43:44.591Z,29.17
2022-08-05T13:47:01.789Z,27.93
2022-08-05T13:49:11.735Z,29.18
2022-08-05T13:51:41.057Z,29.36
2022-08-05T13:54:12.059Z,30.20
2022-08-05T13:56:50.784Z,28.08
2022-08-05T13:59:24.286Z,29.25
2022-08-05T14:01:58.699Z,31.24
2022-08-05T14:04:52.728Z,29.76
2022-08-05T14:07:59.657Z,31.42
2022-08-05T14:10:28.803Z,30.44
2022-08-05T14:12:58.452Z,30.45
2022-08-05T14:16:08.774Z,30.25
2022-08-05T14:18:17.412Z,29.93
2022-08-05T14:20:49.180Z,30.16
2022-08-05T14:23:25.506Z,28.87
2022-08-05T14:25:59.127Z,31.23
2022-08-05T14:28:30.573Z,30.03
2022-08-05T14:30:59.031Z,29.57
2022-08-05T14:33:25.911Z,28.69
2022-08-05T14:35:54.331Z,29.32
2022-08-05T14:38:33.186Z,29.41
2022-08-05T14:41:06.370Z,30.56
2022-08-05T14:43:59.993Z,31.20
2022-08-05T14:46:24.557Z,32.27
2022-08-05T14:49:06.307Z,33.42
2022-08-05T14:51:37.589Z,32.18
2022-08-05T14:54:28.224Z,32.01
2022-08-05T14:56:56.016Z,34.14
2022-08-05T14:59:23.091Z,33.83
2022-08-05T15:01:50.491Z,33.56
2022-08-05T15:04:20.709Z,33.66
2022-08-05T15:06:51.563Z,30.54
2022-08-05T15:09:51.681Z,31.37
2022-08-05T15:12:09.509Z,31.80
2022-08-05T15:14:49.500Z,32.63
2022-08-05T15:17:44.848Z,30.59
2022-08-05T15:20:17.055Z,30.41
2022-08-05T15:22:54.354Z,32.01
2022-08-05T15:25:50.933Z,30.32
2022-08-05T15:28:14.383Z,30.27
2022-08-05T15:30:43.735Z,31.22
2022-08-05T15:33:12.986Z,30.78
2022-08-05T15:35:59.766Z,32.04
2022-08-05T15:38:36.002Z,34.81
2022-08-05T15:41:22.879Z,37.58
2022-08-05T15:43:50.733Z,33.63
2022-08-05T15:46:19.901Z,37.96
2022-08-05T15:48:54.840Z,38.14
2022-08-05T15:52:09.823Z,33.05
2022-08-05T15:54:16.070Z,33.12
2022-08-05T15:56:44.183Z,32.04
2022-08-05T15:59:20.016Z,32.22
2022-08-05T16:01:52.587Z,33.42
2022-08-05T16:04:19.897Z,34.09
2022-08-05T16:06:46.697Z,33.08
2022-08-05T16:09:14.008Z,32.93
2022-08-05T16:11:50.929Z,33.06
2022-08-05T16:14:20.191Z,34.39
2022-08-05T16:16:47.482Z,35.15
2022-08-05T16:19:25.278Z,35.16
2022-08-05T16:22:03.109Z,35.24
2022-08-05T16:24:40.381Z,35.09
2022-08-05T16:27:17.912Z,33.78
2022-08-05T16:29:50.299Z,35.94
2022-08-05T16:32:23.239Z,37.28
2022-08-05T16:34:55.658Z,38.50
2022-08-05T16:38:01.915Z,38.33
2022-08-05T16:40:25.016Z,37.80
2022-08-05T16:42:55.709Z,38.11
2022-08-05T16:46:04.011Z,37.52
2022-08-05T16:48:10.381Z,36.07
2022-08-05T16:50:37.579Z,34.93
2022-08-05T16:53:12.595Z,34.31
2022-08-05T16:55:50.719Z,32.29
2022-08-05T16:58:19.865Z,33.68
2022-08-05T17:00:48.141Z,33.20
2022-08-05T17:03:20.245Z,33.88
2022-08-05T17:05:53.681Z,33.98
2022-08-05T17:08:33.599Z,34.76
2022-08-05T17:11:04.191Z,35.29
2022-08-05T17:13:37.692Z,35.12
2022-08-05T17:16:29.738Z,35.67
2022-08-05T17:18:55.728Z,36.03
2022-08-05T17:21:23.558Z,36.68
2022-08-05T17:24:03.807Z,37.63
2022-08-05T17:26:33.944Z,38.68
2022-08-05T17:29:01.141Z,38.48
2022-08-05T17:31:56.451Z,39.96
2022-08-05T17:34:21.309Z,40.52
2022-08-05T17:36:57.200Z,40.76
2022-08-05T17:39:33.265Z,41.78
2022-08-05T17:42:17.295Z,42.78
2022-08-05T17:44:50.263Z,42.07
2022-08-05T17:47:22.855Z,41.75
2022-08-05T17:50:04.077Z,40.01
2022-08-05T17:52:52.626Z,40.10
2022-08-05T17:55:20.023Z,42.42
2022-08-05T17:57:50.056Z,44.67
2022-08-05T18:00:17.513Z,43.53
2022-08-05T18:02:47.616Z,42.78
2022-08-05T18:05:16.997Z,43.80
2022-08-05T18:07:44.701Z,44.11
2022-08-05T18:10:20.509Z,43.73
2022-08-05T18:12:49.878Z,45.09
2022-08-05T18:15:16.826Z,44.78
2022-08-05T18:18:01.597Z,45.10
2022-08-05T18:20:32.526Z,45.34
2022-08-05T18:23:00.739Z,45.67
2022-08-05T18:25:39.071Z,46.61
2022-08-05T18:28:07.382Z,44.87
2022-08-05T18:30:36.280Z,44.50
2022-08-05T18:33:06.314Z,44.10
2022-08-05T18:36:00.774Z,44.21
2022-08-05T18:38:26.418Z,44.86
2022-08-05T18:41:55.879Z,45.69
2022-08-05T18:43:42.931Z,45.84
2022-08-05T18:46:19.802Z,46.32
2022-08-05T18:48:52.050Z,46.09
2022-08-05T18:52:05.294Z,46.31
2022-08-05T18:54:32.130Z,46.62
2022-08-05T18:57:02.648Z,46.56
2022-08-05T18:59:44.142Z,46.36
2022-08-05T19:02:27.963Z,46.13
2022-08-05T19:05:02.395Z,46.70
2022-08-05T19:07:49.671Z,47.00
2022-08-05T19:10:28.036Z,47.03
2022-08-05T19:12:56.047Z,47.01
2022-08-05T19:15:56.718Z,46.61
2022-08-05T19:18:20.883Z,46.04
2022-08-05T19:20:52.431Z,45.76
2022-08-05T19:24:03.725Z,44.97
2022-08-05T19:26:09.417Z,45.46
2022-08-05T19:28:42.046Z,45.41
2022-08-05T19:31:13.653Z,45.26
2022-08-05T19:33:48.655Z,44.75
2022-08-05T19:36:25.253Z,44.19
2022-08-05T19:38:54.552Z,45.03
2022-08-05T19:41:22.025Z,44.93
2022-08-05T19:44:13.119Z,45.39
2022-08-05T19:46:40.746Z,46.01
2022-08-05T19:49:07.968Z,45.83
2022-08-05T19:52:09.191Z,46.65
2022-08-05T19:54:31.129Z,46.33
2022-08-05T19:57:07.638Z,46.68
2022-08-05T19:59:54.643Z,47.44
2022-08-05T20:02:31.284Z,47.74
2022-08-05T20:04:59.741Z,47.41
2022-08-05T20:07:46.270Z,48.67
2022-08-05T20:10:16.215Z,48.52
2022-08-05T20:12:45.926Z,48.38
2022-08-05T20:15:13.974Z,47.87
2022-08-05T20:17:40.676Z,48.63
2022-08-05T20:20:11.139Z,49.11
2022-08-05T20:22:37.987Z,49.29
2022-08-05T20:25:08.866Z,49.30
2022-08-05T20:27:41.651Z,49.41
2022-08-05T20:30:10.379Z,50.45
2022-08-05T20:32:37.283Z,50.51
2022-08-05T20:35:12.356Z,51.20
2022-08-05T20:38:05.321Z,51.26
2022-08-05T20:40:27.921Z,51.32
2022-08-05T20:43:00.023Z,51.58
2022-08-05T20:45:56.017Z,52.05
2022-08-05T20:48:16.400Z,52.38
2022-08-05T20:50:45.385Z,53.06
2022-08-05T20:53:16.298Z,53.06
2022-08-05T20:56:09.167Z,53.59
2022-08-05T20:58:38.018Z,53.53
2022-08-05T21:01:06.119Z,53.71
2022-08-05T21:03:34.965Z,54.46
2022-08-05T21:06:04.292Z,54.86
2022-08-05T21:08:51.250Z,54.69
2022-08-05T21:12:10.352Z,55.04
2022-08-05T21:14:06.136Z,54.93
2022-08-05T21:16:33.812Z,55.22
2022-08-05T21:19:03.723Z,55.20
2022-08-05T21:21:43.800Z,54.98
2022-08-05T21:24:12.971Z,55.46
2022-08-05T21:26:41.423Z,55.49
2022-08-05T21:29:10.119Z,55.58
2022-08-05T21:31:41.130Z,55.68
2022-08-05T21:34:10.583Z,55.90
2022-08-05T21:36:38.524Z,55.55
2022-08-05T21:39:05.495Z,55.60
2022-08-05T21:41:35.654Z,55.94
2022-08-05T21:44:04.883Z,55.86
2022-08-05T21:46:34.216Z,56.05
2022-08-05T21:50:00.277Z,56.50
2022-08-05T21:52:28.526Z,56.55
2022-08-05T21:55:13.890Z,56.83
2022-08-05T21:58:05.091Z,56.01
2022-08-05T22:00:50.885Z,56.00
2022-08-05T22:03:51.872Z,55.27
2022-08-05T22:06:13.665Z,54.72
2022-08-05T22:08:43.418Z,54.79
2022-08-05T22:11:34.734Z,54.40
2022-08-05T22:14:34.176Z,55.22
2022-08-05T22:16:57.043Z,55.35
2022-08-05T22:20:00.302Z,55.35
2022-08-05T22:22:27.209Z,55.70
2022-08-05T22:25:21.665Z,56.04
2022-08-05T22:28:08.438Z,56.22
2022-08-05T22:30:55.286Z,56.94
2022-08-05T22:33:57.820Z,57.25
2022-08-05T22:36:14.461Z,57.54
2022-08-05T22:38:43.195Z,57.84
2022-08-05T22:41:10.692Z,57.89
2022-08-05T22:43:38.499Z,58.11
2022-08-05T22:46:13.098Z,58.03
2022-08-05T22:48:41.842Z,57.89
2022-08-05T22:51:22.858Z,58.28
2022-08-05T22:53:55.809Z,58.43
2022-08-05T22:56:30.337Z,58.59
2022-08-05T22:59:02.899Z,58.17
2022-08-05T23:02:05.227Z,58.08
2022-08-05T23:04:18.778Z,57.91
2022-08-05T23:06:45.956Z,57.96
2022-08-05T23:09:27.185Z,57.88
2022-08-05T23:12:01.828Z,58.39
2022-08-05T23:14:32.234Z,58.69
2022-08-05T23:17:18.794Z,58.98
2022-08-05T23:19:57.662Z,59.01
2022-08-05T23:22:27.487Z,58.36
2022-08-05T23:24:55.284Z,58.90
2022-08-05T23:27:22.731Z,58.86
2022-08-05T23:29:50.862Z,58.96
2022-08-05T23:32:22.924Z,58.84
2022-08-05T23:34:50.811Z,58.55
2022-08-05T23:37:18.256Z,59.09
2022-08-05T23:39:54.361Z,59.12
2022-08-05T23:42:29.187Z,59.42
2022-08-05T23:44:57.213Z,59.71
2022-08-05T23:47:24.985Z,59.78
2022-08-05T23:49:55.640Z,59.98
2022-08-05T23:52:27.790Z,59.84
2022-08-05T23:54:57.615Z,60.21
2022-08-05T23:57:28.272Z,60.21
